createdAt,value
2019-04-03T00:01:20.550Z,20.37
2019-04-03T00:03:46.859Z,20.17
2019-04-03T00:06:13.490Z,20.60
2019-04-03T00:08:39.849Z,21.03
2019-04-03T00:11:08.567Z,20.80
2019-04-03T00:13:34.706Z,20.03
2019-04-03T00:16:01.055Z,20.57
2019-04-03T00:18:27.358Z,20.37
2019-04-03T00:20:53.842Z,22.13
2019-04-03T00:23:20.627Z,21.43
2019-04-03T00:25:51.999Z,21.30
2019-04-03T00:28:17.901Z,22.73
2019-04-03T00:30:44.219Z,20.83
2019-04-03T00:33:10.632Z,20.50
2019-04-03T00:35:36.925Z,21.50
2019-04-03T00:38:03.234Z,22.20
2019-04-03T00:40:29.566Z,22.10
2019-04-03T00:42:56.498Z,22.00
2019-04-03T00:45:24.530Z,22.80
2019-04-03T00:47:51.074Z,21.10
2019-04-03T00:50:17.486Z,22.43
2019-04-03T00:52:43.791Z,22.87
2019-04-03T00:55:10.183Z,25.50
2019-04-03T00:57:36.631Z,22.30
2019-04-03T01:00:05.269Z,22.60
2019-04-03T01:02:33.484Z,23.00
2019-04-03T01:04:59.769Z,25.30
2019-04-03T01:07:26.067Z,23.10
2019-04-03T01:09:53.467Z,21.77
2019-04-03T01:12:19.976Z,24.23
2019-04-03T01:14:46.259Z,23.37
2019-04-03T01:17:12.682Z,21.87
2019-04-03T01:19:39.051Z,22.93
2019-04-03T01:22:05.702Z,24.27
2019-04-03T01:24:34.868Z,24.40
2019-04-03T01:27:01.309Z,22.83
2019-04-03T01:29:27.783Z,21.23
2019-04-03T01:31:54.193Z,24.30
2019-04-03T01:34:20.503Z,22.93
2019-04-03T01:36:48.172Z,22.47
2019-04-03T01:39:15.053Z,22.73
2019-04-03T01:41:41.542Z,22.90
2019-04-03T01:44:07.847Z,23.70
2019-04-03T01:46:34.448Z,23.67
2019-04-03T01:49:00.945Z,24.50
2019-04-03T01:51:27.732Z,23.87
2019-04-03T01:53:56.035Z,22.93
2019-04-03T01:56:23.439Z,23.93
2019-04-03T01:58:49.884Z,24.87
2019-04-03T02:01:16.274Z,24.10
2019-04-03T02:03:42.563Z,23.10
2019-04-03T02:06:09.111Z,23.53
2019-04-03T02:08:35.599Z,24.97
2019-04-03T02:11:02.046Z,64.27
2019-04-03T02:13:28.602Z,24.33
2019-04-03T02:15:54.914Z,27.90
2019-04-03T02:18:21.211Z,21.77
2019-04-03T02:20:47.671Z,23.60
2019-04-03T02:23:14.026Z,22.70
2019-04-03T02:25:40.427Z,22.83
2019-04-03T02:28:06.848Z,23.17
2019-04-03T02:30:33.249Z,21.40
2019-04-03T02:33:00.042Z,23.20
2019-04-03T02:35:28.688Z,22.63
2019-04-03T02:37:56.594Z,22.03
2019-04-03T02:40:22.930Z,23.63
2019-04-03T02:42:49.444Z,23.70
2019-04-03T02:45:15.865Z,23.80
2019-04-03T02:47:42.617Z,22.60
2019-04-03T02:50:09.198Z,25.53
2019-04-03T02:52:35.642Z,23.90
2019-04-03T02:55:02.058Z,23.40
2019-04-03T02:57:28.740Z,23.53
2019-04-03T02:59:57.899Z,23.67
2019-04-03T03:02:23.471Z,23.00
2019-04-03T03:04:53.947Z,23.07
2019-04-03T03:07:31.051Z,24.37
2019-04-03T03:10:09.596Z,25.23
2019-04-03T03:12:50.594Z,23.20
2019-04-03T03:15:17.130Z,24.87
2019-04-03T03:17:43.504Z,23.87
2019-04-03T03:20:10.075Z,25.17
2019-04-03T03:22:36.624Z,24.63
2019-04-03T03:25:03.384Z,25.20
2019-04-03T03:27:30.056Z,23.80
2019-04-03T03:29:59.750Z,23.40
2019-04-03T03:32:31.379Z,24.70
2019-04-03T03:35:06.615Z,24.47
2019-04-03T03:37:22.393Z,23.93
2019-04-03T03:39:50.044Z,24.47
2019-04-03T03:42:17.391Z,23.90
2019-04-03T03:44:45.912Z,24.90
2019-04-03T03:47:12.242Z,23.53
2019-04-03T03:49:39.169Z,24.93
2019-04-03T03:52:06.288Z,25.30
2019-04-03T03:54:32.995Z,23.90
2019-04-03T03:57:03.993Z,25.37
2019-04-03T03:59:28.836Z,22.70
2019-04-03T04:01:55.395Z,22.00
2019-04-03T04:04:21.921Z,24.40
2019-04-03T04:06:48.719Z,23.07
2019-04-03T04:09:17.438Z,24.43
2019-04-03T04:11:43.817Z,22.80
2019-04-03T04:14:10.695Z,22.43
2019-04-03T04:16:38.185Z,23.37
2019-04-03T04:19:04.826Z,25.67
2019-04-03T04:21:31.479Z,23.53
2019-04-03T04:23:57.859Z,28.17
2019-04-03T04:26:24.168Z,23.60
2019-04-03T04:28:50.556Z,28.87
2019-04-03T04:31:17.263Z,32.50
2019-04-03T04:33:43.744Z,33.40
2019-04-03T04:36:10.248Z,50.83
2019-04-03T04:38:36.645Z,40.40
2019-04-03T04:41:03.034Z,39.07
2019-04-03T04:43:29.330Z,32.87
2019-04-03T04:45:55.753Z,24.23
2019-04-03T04:48:22.102Z,33.43
2019-04-03T04:50:48.452Z,28.00
2019-04-03T04:53:14.818Z,25.13
2019-04-03T04:55:41.125Z,29.57
2019-04-03T04:58:07.443Z,25.87
2019-04-03T05:00:33.927Z,25.30
2019-04-03T05:03:01.767Z,25.57
2019-04-03T05:05:30.914Z,24.77
2019-04-03T05:07:57.181Z,24.87
2019-04-03T05:10:23.614Z,24.67
2019-04-03T05:12:49.932Z,25.50
2019-04-03T05:15:17.729Z,24.63
2019-04-03T05:17:44.531Z,24.17
2019-04-03T05:20:11.232Z,25.33
2019-04-03T05:22:37.690Z,24.70
2019-04-03T05:25:04.202Z,24.00
2019-04-03T05:27:33.364Z,24.50
2019-04-03T05:29:58.688Z,24.87
2019-04-03T05:32:25.333Z,23.33
2019-04-03T05:34:51.629Z,22.93
2019-04-03T05:37:19.992Z,23.60
2019-04-03T05:39:46.323Z,23.63
2019-04-03T05:42:12.864Z,21.83
2019-04-03T05:44:39.266Z,24.00
2019-04-03T05:47:07.592Z,23.53
2019-04-03T05:49:35.127Z,23.27
2019-04-03T05:52:03.423Z,24.03
2019-04-03T05:54:29.758Z,24.00
2019-04-03T05:56:56.053Z,23.97
2019-04-03T05:59:22.350Z,23.50
2019-04-03T06:01:48.755Z,24.03
2019-04-03T06:04:16.279Z,24.57
2019-04-03T06:06:44.132Z,24.40
2019-04-03T06:09:10.779Z,22.60
2019-04-03T06:11:39.874Z,23.90
2019-04-03T06:14:08.482Z,22.90
2019-04-03T06:16:33.716Z,26.63
2019-04-03T06:19:00.126Z,23.87
2019-04-03T06:21:26.488Z,23.57
2019-04-03T06:23:53.371Z,22.83
2019-04-03T06:26:20.013Z,22.83
2019-04-03T06:28:47.755Z,21.83
2019-04-03T06:31:14.644Z,22.73
2019-04-03T06:33:41.187Z,21.93
2019-04-03T06:36:07.508Z,23.30
2019-04-03T06:38:33.824Z,22.67
2019-04-03T06:41:00.730Z,23.20
2019-04-03T06:43:29.534Z,24.20
2019-04-03T06:45:57.074Z,22.10
2019-04-03T06:48:24.607Z,23.80
2019-04-03T06:50:50.902Z,24.30
2019-04-03T06:53:17.601Z,22.07
2019-04-03T06:55:44.320Z,27.33
2019-04-03T06:58:11.656Z,23.30
2019-04-03T07:00:38.935Z,20.73
2019-04-03T07:03:05.470Z,22.43
2019-04-03T07:05:31.991Z,22.50
2019-04-03T07:08:00.854Z,21.90
2019-04-03T07:10:27.689Z,22.93
2019-04-03T07:12:54.075Z,23.07
2019-04-03T07:15:20.477Z,23.30
2019-04-03T07:17:47.027Z,23.60
2019-04-03T07:20:15.593Z,21.20
2019-04-03T07:22:41.622Z,21.10
2019-04-03T07:25:08.435Z,21.50
2019-04-03T07:27:36.610Z,22.13
2019-04-03T07:30:03.981Z,21.90
2019-04-03T07:32:30.291Z,21.07
2019-04-03T07:34:56.703Z,22.23
2019-04-03T07:37:23.081Z,19.37
2019-04-03T07:39:50.239Z,21.00
2019-04-03T07:42:17.159Z,22.27
2019-04-03T07:44:43.748Z,21.73
2019-04-03T07:47:10.079Z,21.40
2019-04-03T07:49:37.679Z,20.50
2019-04-03T07:52:05.079Z,21.30
2019-04-03T07:54:31.407Z,21.47
2019-04-03T07:56:58.143Z,20.93
2019-04-03T07:59:25.619Z,21.07
2019-04-03T08:01:51.936Z,20.33
2019-04-03T08:04:18.227Z,19.30
2019-04-03T08:06:44.630Z,19.77
2019-04-03T08:09:11.151Z,19.80
2019-04-03T08:11:37.841Z,20.03
2019-04-03T08:14:04.226Z,19.50
2019-04-03T08:16:30.555Z,20.37
2019-04-03T08:18:57.045Z,18.47
2019-04-03T08:21:23.499Z,18.57
2019-04-03T08:23:49.997Z,27.57
2019-04-03T08:26:19.019Z,20.80
2019-04-03T08:28:44.850Z,20.43
2019-04-03T08:31:12.378Z,21.53
2019-04-03T08:33:39.267Z,19.47
2019-04-03T08:36:07.954Z,18.90
2019-04-03T08:38:34.159Z,19.00
2019-04-03T08:41:03.325Z,17.63
2019-04-03T08:43:31.498Z,16.97
2019-04-03T08:45:57.258Z,18.13
2019-04-03T08:48:23.687Z,18.53
2019-04-03T08:50:50.094Z,18.60
2019-04-03T08:53:16.414Z,20.50
2019-04-03T08:55:43.950Z,16.40
2019-04-03T08:58:11.139Z,16.10
2019-04-03T09:00:37.823Z,19.40
2019-04-03T09:03:04.428Z,33.33
2019-04-03T09:05:31.026Z,19.00
2019-04-03T09:07:57.709Z,26.37
2019-04-03T09:10:24.081Z,29.20
2019-04-03T09:12:50.367Z,19.90
2019-04-03T09:15:16.948Z,17.83
2019-04-03T09:17:43.611Z,17.20
2019-04-03T09:20:12.625Z,25.43
2019-04-03T09:22:39.810Z,23.13
2019-04-03T09:25:06.665Z,20.40
2019-04-03T09:27:33.050Z,24.00
2019-04-03T09:29:59.858Z,18.77
2019-04-03T09:32:26.278Z,24.57
2019-04-03T09:34:52.663Z,17.50
2019-04-03T09:37:19.045Z,25.30
2019-04-03T09:39:45.970Z,16.80
2019-04-03T09:42:12.926Z,20.60
2019-04-03T09:44:39.607Z,17.33
2019-04-03T09:47:06.375Z,18.57
2019-04-03T09:49:32.730Z,17.87
2019-04-03T09:51:59.348Z,17.90
2019-04-03T09:54:28.378Z,18.43
2019-04-03T09:56:59.916Z,18.40
2019-04-03T09:59:22.316Z,20.23
2019-04-03T10:01:48.769Z,19.53
2019-04-03T10:04:15.230Z,19.33
2019-04-03T10:06:41.606Z,22.40
2019-04-03T10:09:08.123Z,21.30
2019-04-03T10:11:34.768Z,22.00
2019-04-03T10:14:01.177Z,24.90
2019-04-03T10:16:27.478Z,25.17
2019-04-03T10:18:53.891Z,25.43
2019-04-03T10:21:20.769Z,26.03
2019-04-03T10:23:47.895Z,33.10
2019-04-03T10:26:14.265Z,30.10
2019-04-03T10:28:42.593Z,31.97
2019-04-03T10:31:09.498Z,25.60
2019-04-03T10:33:35.967Z,26.10
2019-04-03T10:36:02.388Z,28.80
2019-04-03T10:38:28.685Z,37.97
2019-04-03T10:40:56.219Z,26.47
2019-04-03T10:43:23.414Z,27.03
2019-04-03T10:45:50.807Z,38.97
2019-04-03T10:48:17.238Z,34.83
2019-04-03T10:50:43.686Z,26.83
2019-04-03T10:53:10.244Z,26.33
2019-04-03T10:55:36.874Z,25.97
2019-04-03T10:58:06.546Z,26.80
2019-04-03T11:00:31.981Z,36.63
2019-04-03T11:02:58.357Z,26.70
2019-04-03T11:05:25.186Z,28.53
2019-04-03T11:07:51.745Z,29.50
2019-04-03T11:10:18.122Z,29.63
2019-04-03T11:12:44.529Z,24.97
2019-04-03T11:15:12.652Z,24.80
2019-04-03T11:17:39.448Z,25.23
2019-04-03T11:20:07.063Z,24.17
2019-04-03T11:22:40.458Z,24.97
2019-04-03T11:25:04.103Z,23.43
2019-04-03T11:29:58.760Z,23.60
2019-04-03T11:30:54.040Z,23.37
2019-04-03T11:32:25.231Z,25.37
2019-04-03T11:34:53.762Z,23.87
2019-04-03T11:37:19.769Z,24.30
2019-04-03T11:39:46.920Z,28.13
2019-04-03T11:42:23.229Z,23.07
2019-04-03T11:44:42.110Z,23.23
2019-04-03T11:47:09.220Z,23.77
2019-04-03T11:49:37.003Z,21.70
2019-04-03T11:52:03.424Z,20.93
2019-04-03T11:54:29.774Z,18.90
2019-04-03T11:56:57.092Z,18.47
2019-04-03T11:59:24.413Z,21.00
2019-04-03T12:01:51.205Z,20.13
2019-04-03T12:04:17.642Z,23.03
2019-04-03T12:06:44.321Z,30.63
2019-04-03T12:09:11.052Z,23.77
2019-04-03T12:11:38.396Z,19.20
2019-04-03T12:14:05.613Z,19.07
2019-04-03T12:16:32.009Z,19.17
2019-04-03T12:18:58.308Z,21.90
2019-04-03T12:21:24.734Z,21.13
2019-04-03T12:23:51.027Z,20.77
2019-04-03T12:26:19.809Z,21.83
2019-04-03T12:28:48.320Z,25.03
2019-04-03T12:31:13.759Z,20.80
2019-04-03T12:33:52.337Z,21.43
2019-04-03T12:36:08.484Z,20.80
2019-04-03T12:38:35.364Z,21.30
2019-04-03T12:41:35.431Z,29.30
2019-04-03T12:44:01.305Z,20.90
2019-04-03T12:46:40.899Z,21.93
2019-04-03T12:49:07.845Z,17.60
2019-04-03T12:51:34.811Z,25.40
2019-04-03T12:54:01.792Z,16.80
2019-04-03T12:56:30.058Z,13.53
2019-04-03T12:58:56.723Z,14.50
2019-04-03T13:01:23.520Z,15.13
2019-04-03T13:03:49.967Z,14.00
2019-04-03T13:06:16.276Z,14.23
2019-04-03T13:08:42.793Z,58.53
2019-04-03T13:11:19.952Z,14.80
2019-04-03T13:13:47.164Z,15.87
2019-04-03T13:16:14.142Z,16.80
2019-04-03T13:18:40.822Z,9.43
2019-04-03T13:21:09.043Z,11.83
2019-04-03T13:23:35.612Z,8.90
2019-04-03T13:26:02.372Z,9.57
2019-04-03T13:28:28.961Z,9.00
2019-04-03T13:30:55.685Z,7.80
2019-04-03T13:33:22.321Z,7.87
2019-04-03T13:35:49.536Z,17.30
2019-04-03T13:38:16.357Z,12.40
2019-04-03T13:40:42.896Z,10.40
2019-04-03T13:43:09.391Z,6.13
2019-04-03T13:45:35.790Z,6.70
2019-04-03T13:48:02.202Z,9.93
2019-04-03T13:50:28.591Z,7.67
2019-04-03T13:52:54.884Z,7.47
2019-04-03T13:55:21.254Z,7.63
2019-04-03T13:57:49.474Z,7.03
2019-04-03T14:00:20.968Z,19.67
2019-04-03T14:02:45.996Z,8.23
2019-04-03T14:05:12.454Z,15.17
2019-04-03T14:07:41.547Z,11.63
2019-04-03T14:10:07.654Z,11.57
2019-04-03T14:12:36.645Z,17.57
2019-04-03T14:15:04.378Z,24.93
2019-04-03T14:17:31.242Z,20.90
2019-04-03T14:19:57.582Z,18.90
2019-04-03T14:22:23.893Z,15.27
2019-04-03T14:24:52.543Z,12.10
2019-04-03T14:27:23.878Z,8.63
2019-04-03T14:29:46.678Z,10.80
2019-04-03T14:32:14.564Z,12.60
2019-04-03T14:34:41.182Z,12.03
2019-04-03T14:37:07.590Z,13.13
2019-04-03T14:39:34.265Z,13.87
2019-04-03T14:42:00.870Z,13.10
2019-04-03T14:44:27.234Z,15.70
2019-04-03T14:46:53.525Z,14.13
2019-04-03T14:49:19.930Z,16.30
2019-04-03T14:51:46.242Z,16.23
2019-04-03T14:54:12.549Z,13.60
2019-04-03T14:56:39.162Z,14.20
2019-04-03T14:59:05.948Z,12.80
2019-04-03T15:01:32.510Z,13.43
2019-04-03T15:04:00.771Z,14.70
2019-04-03T15:06:27.182Z,15.17
2019-04-03T15:08:54.651Z,14.93
2019-04-03T15:11:21.970Z,18.37
2019-04-03T15:13:49.854Z,18.00
2019-04-03T15:16:16.774Z,17.40
2019-04-03T15:18:43.247Z,21.10
2019-04-03T15:21:11.019Z,17.80
2019-04-03T15:23:40.428Z,32.93
2019-04-03T15:26:05.759Z,20.63
2019-04-03T15:28:32.416Z,18.97
2019-04-03T15:30:58.797Z,21.60
2019-04-03T15:33:25.143Z,21.30
2019-04-03T15:35:51.989Z,17.43
2019-04-03T15:38:19.840Z,17.70
2019-04-03T15:40:46.265Z,18.90
2019-04-03T15:43:15.944Z,18.77
2019-04-03T15:45:41.240Z,15.90
2019-04-03T15:48:07.568Z,16.77
2019-04-03T15:50:37.562Z,15.73
2019-04-03T15:53:02.398Z,14.70
2019-04-03T15:55:29.194Z,15.87
2019-04-03T15:57:55.701Z,15.37
2019-04-03T16:00:22.559Z,14.00
2019-04-03T16:02:50.064Z,17.23
2019-04-03T16:05:16.870Z,46.80
2019-04-03T16:07:43.298Z,64.17
2019-04-03T16:10:10.595Z,25.63
2019-04-03T16:12:41.586Z,32.50
2019-04-03T16:15:08.578Z,25.63
2019-04-03T16:17:37.619Z,19.00
2019-04-03T16:20:03.986Z,20.73
2019-04-03T16:22:32.136Z,20.17
2019-04-03T16:24:58.860Z,16.10
2019-04-03T16:27:27.671Z,17.40
2019-04-03T16:29:54.005Z,18.07
2019-04-03T16:32:20.823Z,16.27
2019-04-03T16:34:48.443Z,15.83
2019-04-03T16:37:15.289Z,22.97
2019-04-03T16:39:41.806Z,14.30
2019-04-03T16:42:08.540Z,14.37
2019-04-03T16:44:35.529Z,12.53
2019-04-03T16:47:01.933Z,13.37
2019-04-03T16:49:29.422Z,12.80
2019-04-03T16:51:55.914Z,13.17
2019-04-03T17:01:40.010Z,11.13
2019-04-03T17:04:08.834Z,13.30
2019-04-03T17:06:34.548Z,14.13
2019-04-03T17:09:00.877Z,13.97
2019-04-03T17:11:27.148Z,13.20
2019-04-03T17:13:53.462Z,13.00
2019-04-03T17:16:20.005Z,11.80
2019-04-03T17:18:47.490Z,20.73
2019-04-03T17:21:14.366Z,16.63
2019-04-03T17:23:41.852Z,13.20
2019-04-03T17:26:09.724Z,11.87
2019-04-03T17:28:39.354Z,12.23
2019-04-03T17:31:05.896Z,20.73
2019-04-03T17:33:34.476Z,27.40
2019-04-03T17:36:00.347Z,17.40
2019-04-03T17:38:26.698Z,14.13
2019-04-03T17:40:54.705Z,16.73
2019-04-03T17:43:21.992Z,14.03
2019-04-03T17:45:48.274Z,14.60
2019-04-03T17:48:14.551Z,14.10
2019-04-03T17:50:40.847Z,13.43
2019-04-03T17:53:07.131Z,14.20
2019-04-03T17:55:34.823Z,13.43
2019-04-03T17:58:01.357Z,14.90
2019-04-03T18:00:27.739Z,14.83
2019-04-03T18:02:54.046Z,14.37
2019-04-03T18:05:20.455Z,13.80
2019-04-03T18:07:47.565Z,13.37
2019-04-03T18:10:15.151Z,15.00
2019-04-03T18:12:42.183Z,14.17
2019-04-03T18:15:09.461Z,16.40
2019-04-03T18:17:35.870Z,15.40
2019-04-03T18:20:03.340Z,14.83
2019-04-03T18:22:30.251Z,15.07
2019-04-03T18:24:56.546Z,15.20
2019-04-03T18:27:23.045Z,16.60
2019-04-03T18:29:50.391Z,16.17
2019-04-03T18:32:16.678Z,15.30
2019-04-03T18:34:42.995Z,16.60
2019-04-03T18:37:09.394Z,17.60
2019-04-03T18:39:40.299Z,15.77
2019-04-03T18:42:06.541Z,16.77
2019-04-03T18:44:32.814Z,16.77
2019-04-03T18:47:00.223Z,18.50
2019-04-03T18:49:26.649Z,36.07
2019-04-03T18:51:53.137Z,20.77
2019-04-03T18:54:19.426Z,19.20
2019-04-03T18:56:46.597Z,18.10
2019-04-03T18:59:15.290Z,17.70
2019-04-03T19:01:41.365Z,19.83
2019-04-03T19:04:08.146Z,19.20
2019-04-03T19:06:34.612Z,19.17
2019-04-03T19:09:09.797Z,18.80
2019-04-03T19:11:31.069Z,18.20
2019-04-03T19:13:57.358Z,18.97
2019-04-03T19:16:29.431Z,18.50
2019-04-03T19:18:52.274Z,17.30
2019-04-03T19:21:24.285Z,17.57
2019-04-03T19:23:50.035Z,18.23
2019-04-03T19:26:16.036Z,18.67
2019-04-03T19:28:42.544Z,18.97
2019-04-03T19:31:09.347Z,20.00
2019-04-03T19:33:36.904Z,19.47
2019-04-03T19:36:03.567Z,18.97
2019-04-03T19:40:36.018Z,19.77
2019-04-03T19:42:36.861Z,19.30
2019-04-03T19:45:20.680Z,20.73
2019-04-03T19:48:51.587Z,19.90
2019-04-03T19:52:11.126Z,23.57
2019-04-03T19:54:42.334Z,24.00
2019-04-03T19:57:08.918Z,25.90
2019-04-03T19:59:36.153Z,27.20
2019-04-03T20:02:02.550Z,24.60
2019-04-03T20:04:29.050Z,24.13
2019-04-03T20:06:56.665Z,25.13
2019-04-03T20:09:23.089Z,27.30
2019-04-03T20:11:49.690Z,30.70
2019-04-03T20:14:15.989Z,27.13
2019-04-03T20:16:42.477Z,32.27
2019-04-03T20:19:08.786Z,32.87
2019-04-03T20:21:35.965Z,32.73
2019-04-03T20:24:02.891Z,33.00
2019-04-03T20:26:29.186Z,30.90
2019-04-03T20:28:57.401Z,29.40
2019-04-03T20:31:23.722Z,29.70
2019-04-03T20:33:50.017Z,36.07
2019-04-03T20:36:16.747Z,30.13
2019-04-03T20:38:43.151Z,32.30
2019-04-03T20:41:09.462Z,31.73
2019-04-03T20:43:35.770Z,33.93
2019-04-03T20:46:02.163Z,31.17
2019-04-03T20:48:29.567Z,33.03
2019-04-03T20:50:56.155Z,31.70
2019-04-03T20:53:22.558Z,32.50
2019-04-03T20:55:48.865Z,32.27
2019-04-03T20:58:15.198Z,32.03
2019-04-03T21:00:41.622Z,32.80
2019-04-03T21:03:07.933Z,32.27
2019-04-03T21:05:34.459Z,33.07
2019-04-03T21:08:00.755Z,31.43
2019-04-03T21:10:27.146Z,36.67
2019-04-03T21:12:53.570Z,32.60
2019-04-03T21:15:19.951Z,37.57
2019-04-03T21:17:49.607Z,37.03
2019-04-03T21:20:14.682Z,36.23
2019-04-03T21:22:42.578Z,33.87
2019-04-03T21:25:08.969Z,32.67
2019-04-03T21:27:35.437Z,34.50
2019-04-03T21:30:01.827Z,35.00
2019-04-03T21:32:29.474Z,40.10
2019-04-03T21:34:56.039Z,35.57
2019-04-03T21:37:22.333Z,36.57
2019-04-03T21:39:48.730Z,36.37
2019-04-03T21:42:15.161Z,35.67
2019-04-03T21:44:41.487Z,34.97
2019-04-03T21:47:07.769Z,46.47
2019-04-03T21:49:34.073Z,37.00
2019-04-03T21:52:00.401Z,37.50
2019-04-03T21:54:27.372Z,37.30
2019-04-03T21:56:53.954Z,43.47
2019-04-03T21:59:20.244Z,38.70
2019-04-03T22:01:46.658Z,38.80
2019-04-03T22:04:12.963Z,40.93
2019-04-03T22:06:39.283Z,37.93
2019-04-03T22:09:09.198Z,37.93
2019-04-03T22:11:35.954Z,37.80
2019-04-03T22:14:02.782Z,38.67
2019-04-03T22:16:29.170Z,39.60
2019-04-03T22:18:55.587Z,41.03
2019-04-03T22:21:22.185Z,44.57
2019-04-03T22:23:48.879Z,37.50
2019-04-03T22:26:15.385Z,40.93
2019-04-03T22:28:41.691Z,40.20
2019-04-03T22:31:07.987Z,37.23
2019-04-03T22:33:34.450Z,40.30
2019-04-03T22:36:01.234Z,39.57
2019-04-03T22:38:29.234Z,38.87
2019-04-03T22:40:55.626Z,38.40
2019-04-03T22:43:21.904Z,39.47
2019-04-03T22:45:50.433Z,38.33
2019-04-03T22:48:16.703Z,40.93
2019-04-03T22:50:44.097Z,38.40
2019-04-03T22:53:11.403Z,38.17
2019-04-03T22:55:37.706Z,37.53
2019-04-03T22:58:04.081Z,36.40
2019-04-03T23:00:30.519Z,43.33
2019-04-03T23:02:56.920Z,36.93
2019-04-03T23:05:23.214Z,38.23
2019-04-03T23:07:51.764Z,37.83
2019-04-03T23:10:17.855Z,38.00
2019-04-03T23:12:44.245Z,37.30
2019-04-03T23:15:10.663Z,40.93
2019-04-03T23:17:38.147Z,40.03
2019-04-03T23:20:04.691Z,40.93
2019-04-03T23:22:31.090Z,42.37
2019-04-03T23:24:59.267Z,41.07
2019-04-03T23:27:25.689Z,40.23
2019-04-03T23:29:52.109Z,40.03
2019-04-03T23:32:18.499Z,42.37
2019-04-03T23:34:44.898Z,40.07
2019-04-03T23:37:11.205Z,40.87
2019-04-03T23:39:37.498Z,30.13
2019-04-03T23:42:06.595Z,35.77
2019-04-03T23:44:32.093Z,41.50
2019-04-03T23:46:58.487Z,47.90
2019-04-03T23:49:25.880Z,30.40
2019-04-03T23:51:52.454Z,34.77
2019-04-03T23:54:18.742Z,48.27
2019-04-03T23:56:45.043Z,29.77
2019-04-03T23:59:13.105Z,38.70
